createdAt,value
2022-08-04T00:02:08.155Z,100531.94
2022-08-04T00:04:46.071Z,100530.53
2022-08-04T00:07:44.240Z,100531.00
2022-08-04T00:10:08.497Z,100530.00
2022-08-04T00:12:39.777Z,100530.94
2022-08-04T00:15:06.962Z,100530.78
2022-08-04T00:17:40.795Z,100524.19
2022-08-04T00:20:07.819Z,100529.28
2022-08-04T00:22:34.922Z,100528.87
2022-08-04T00:25:05.087Z,100530.19
2022-08-04T00:27:32.168Z,100527.75
2022-08-04T00:30:03.020Z,100525.91
2022-08-04T00:32:34.565Z,100529.06
2022-08-04T00:35:01.616Z,100527.00
2022-08-04T00:37:28.273Z,100533.22
2022-08-04T00:39:55.705Z,100529.50
2022-08-04T00:42:58.534Z,100524.50
2022-08-04T00:46:15.592Z,100538.25
2022-08-04T00:49:02.117Z,100541.81
2022-08-04T00:51:40.624Z,100535.78
2022-08-04T00:54:31.458Z,100545.69
2022-08-04T00:57:03.143Z,100545.16
2022-08-04T01:00:06.509Z,100542.06
2022-08-04T01:03:03.348Z,100547.12
2022-08-04T01:05:38.095Z,100543.06
2022-08-04T01:08:16.892Z,100543.91
2022-08-04T01:10:52.691Z,100549.88
2022-08-04T01:13:26.432Z,100547.53
2022-08-04T01:16:05.731Z,100548.22
2022-08-04T01:18:53.215Z,100547.94
2022-08-04T01:21:38.433Z,100550.13
2022-08-04T01:24:23.395Z,100553.22
2022-08-04T01:27:34.931Z,100554.47
2022-08-04T01:30:04.796Z,100549.25
2022-08-04T01:32:38.465Z,100544.56
2022-08-04T01:35:47.174Z,100551.09
2022-08-04T01:38:22.449Z,100552.13
2022-08-04T01:40:52.286Z,100547.03
2022-08-04T01:43:18.864Z,100547.94
2022-08-04T01:45:45.494Z,100545.56
2022-08-04T01:48:12.863Z,100549.53
2022-08-04T01:50:39.456Z,100552.66
2022-08-04T01:53:06.066Z,100550.25
2022-08-04T01:55:54.896Z,100543.91
2022-08-04T01:58:19.612Z,100545.19
2022-08-04T02:01:11.063Z,100541.94
2022-08-04T02:04:18.243Z,100548.00
2022-08-04T02:06:44.228Z,100547.16
2022-08-04T02:09:35.590Z,100544.47
2022-08-04T02:12:44.735Z,100544.63
2022-08-04T02:15:28.225Z,100544.63
2022-08-04T02:18:05.315Z,100540.09
2022-08-04T02:20:36.038Z,100538.41
2022-08-04T02:23:07.914Z,100543.59
2022-08-04T02:25:38.660Z,100533.44
2022-08-04T02:28:42.491Z,100535.28
2022-08-04T02:31:41.508Z,100537.41
2022-08-04T02:34:09.749Z,100538.44
2022-08-04T02:36:38.398Z,100539.97
2022-08-04T02:39:06.400Z,100534.91
2022-08-04T02:41:33.250Z,100549.31
2022-08-04T02:44:02.883Z,100545.47
2022-08-04T02:46:30.126Z,100547.03
2022-08-04T02:48:57.353Z,100546.16
2022-08-04T02:51:47.532Z,100540.66
2022-08-04T02:54:15.916Z,100542.50
2022-08-04T02:56:58.798Z,100533.34
2022-08-04T02:59:26.774Z,100538.56
2022-08-04T03:01:58.083Z,100538.00
2022-08-04T03:04:39.795Z,100543.00
2022-08-04T03:07:25.247Z,100526.91
2022-08-04T03:10:22.980Z,100540.47
2022-08-04T03:13:05.631Z,100547.66
2022-08-04T03:16:23.252Z,100543.28
2022-08-04T03:19:02.583Z,100538.94
2022-08-04T03:21:41.539Z,100541.87
2022-08-04T03:24:23.300Z,100544.56
2022-08-04T03:27:11.325Z,100545.72
2022-08-04T03:30:16.158Z,100546.09
2022-08-04T03:32:54.724Z,100550.25
2022-08-04T03:35:42.926Z,100550.25
2022-08-04T03:38:40.535Z,100557.59
2022-08-04T03:41:51.693Z,100555.59
2022-08-04T03:44:51.054Z,100550.06
2022-08-04T03:47:45.664Z,100550.06
2022-08-04T03:50:18.141Z,100553.06
2022-08-04T03:53:09.583Z,100554.47
2022-08-04T03:55:48.183Z,100553.62
2022-08-04T03:58:47.101Z,100559.00
2022-08-04T04:01:28.581Z,100559.97
2022-08-04T04:04:49.377Z,100560.81
2022-08-04T04:07:37.492Z,100558.13
2022-08-04T04:10:17.492Z,100556.84
2022-08-04T04:12:56.909Z,100556.84
2022-08-04T04:15:49.832Z,100563.44
2022-08-04T04:18:42.357Z,100557.66
2022-08-04T04:21:33.686Z,100563.28
2022-08-04T04:24:09.229Z,100558.72
2022-08-04T04:26:54.524Z,100561.09
2022-08-04T04:29:46.717Z,100559.28
2022-08-04T04:32:50.974Z,100563.09
2022-08-04T04:35:20.612Z,100560.34
2022-08-04T04:38:24.075Z,100558.78
2022-08-04T04:41:26.172Z,100568.66
2022-08-04T04:44:21.335Z,100571.44
2022-08-04T04:47:06.318Z,100566.50
2022-08-04T04:50:04.712Z,100567.25
2022-08-04T04:52:56.779Z,100567.62
2022-08-04T04:55:28.844Z,100570.84
2022-08-04T04:57:58.458Z,100575.91
2022-08-04T05:00:26.750Z,100571.56
2022-08-04T05:03:09.209Z,100572.37
2022-08-04T05:06:00.499Z,100580.59
2022-08-04T05:08:53.829Z,100578.16
2022-08-04T05:11:35.855Z,100576.22
2022-08-04T05:14:34.554Z,100590.97
2022-08-04T05:17:21.588Z,100586.34
2022-08-04T05:20:01.187Z,100591.03
2022-08-04T05:22:47.888Z,100586.94
2022-08-04T05:25:19.463Z,100588.63
2022-08-04T05:27:50.494Z,100592.06
2022-08-04T05:30:17.419Z,100595.88
2022-08-04T05:33:00.966Z,100588.94
2022-08-04T05:35:52.828Z,100594.59
2022-08-04T05:38:24.770Z,100597.59
2022-08-04T05:40:51.361Z,100600.53
2022-08-04T05:43:17.974Z,100585.94
2022-08-04T05:45:48.134Z,100606.00
2022-08-04T05:48:14.798Z,100597.59
2022-08-04T05:50:41.397Z,100598.31
2022-08-04T05:53:08.004Z,100606.81
2022-08-04T05:55:58.124Z,100608.81
2022-08-04T05:58:21.535Z,100604.97
2022-08-04T06:00:52.150Z,100609.16
2022-08-04T06:03:20.179Z,100600.47
2022-08-04T06:05:46.796Z,100605.84
2022-08-04T06:08:14.171Z,100606.72
2022-08-04T06:10:40.997Z,100608.91
2022-08-04T06:13:10.500Z,100608.09
2022-08-04T06:15:57.177Z,100610.28
2022-08-04T06:19:56.437Z,100611.75
2022-08-04T06:21:15.934Z,100608.81
2022-08-04T06:23:53.771Z,100600.50
2022-08-04T06:26:29.178Z,100606.75
2022-08-04T06:28:55.838Z,100606.03
2022-08-04T06:32:28.476Z,100609.78
2022-08-04T06:34:30.157Z,100619.25
2022-08-04T06:36:56.826Z,100610.72
2022-08-04T06:39:24.389Z,100604.13
2022-08-04T06:41:55.292Z,100608.28
2022-08-04T06:44:38.345Z,100600.09
2022-08-04T06:47:05.140Z,100601.94
2022-08-04T06:49:55.202Z,100596.37
2022-08-04T06:52:21.497Z,100594.84
2022-08-04T06:54:48.598Z,100601.12
2022-08-04T06:57:16.927Z,100598.31
2022-08-04T06:59:44.618Z,100594.91
2022-08-04T07:02:15.772Z,100599.44
2022-08-04T07:04:45.440Z,100596.34
2022-08-04T07:07:12.208Z,100594.25
2022-08-04T07:09:39.363Z,100599.28
2022-08-04T07:12:06.807Z,100595.34
2022-08-04T07:14:36.132Z,100599.75
2022-08-04T07:17:04.702Z,100600.88
2022-08-04T07:19:33.081Z,100595.66
2022-08-04T07:22:16.386Z,100594.22
2022-08-04T07:24:56.450Z,100594.53
2022-08-04T07:27:47.606Z,100586.34
2022-08-04T07:30:11.057Z,100587.62
2022-08-04T07:32:37.993Z,100590.50
2022-08-04T07:35:05.493Z,100593.50
2022-08-04T07:37:39.939Z,100580.00
2022-08-04T07:40:07.678Z,100585.75
2022-08-04T07:42:34.466Z,100587.94
2022-08-04T07:45:01.086Z,100575.31
2022-08-04T07:47:27.873Z,100570.72
2022-08-04T07:49:57.763Z,100577.53
2022-08-04T07:52:25.819Z,100567.88
2022-08-04T07:54:52.591Z,100563.81
2022-08-04T07:57:39.783Z,100567.84
2022-08-04T08:00:08.363Z,100563.69
2022-08-04T08:02:35.655Z,100559.13
2022-08-04T08:05:02.385Z,100555.72
2022-08-04T08:07:29.029Z,100563.28
2022-08-04T08:09:55.770Z,100559.84
2022-08-04T08:12:36.715Z,100565.44
2022-08-04T08:15:10.325Z,100565.78
2022-08-04T08:17:59.876Z,100565.94
2022-08-04T08:20:29.531Z,100568.25
2022-08-04T08:22:56.825Z,100565.22
2022-08-04T08:25:23.458Z,100565.75
2022-08-04T08:27:56.059Z,100559.88
2022-08-04T08:30:24.274Z,100553.03
2022-08-04T08:32:50.859Z,100572.53
2022-08-04T08:35:18.071Z,100565.41
2022-08-04T08:37:56.252Z,100563.94
2022-08-04T08:40:44.254Z,100565.38
2022-08-04T08:44:04.375Z,100564.88
2022-08-04T08:46:45.209Z,100564.12
2022-08-04T08:50:01.993Z,100559.81
2022-08-04T08:52:55.284Z,100566.37
2022-08-04T08:55:31.359Z,100568.25
2022-08-04T08:58:19.314Z,100562.31
2022-08-04T09:00:51.695Z,100561.53
2022-08-04T09:03:32.830Z,100549.72
2022-08-04T09:06:18.190Z,100556.69
2022-08-04T09:09:04.052Z,100560.59
2022-08-04T09:11:57.761Z,100560.03
2022-08-04T09:14:26.391Z,100563.19
2022-08-04T09:16:56.729Z,100562.31
2022-08-04T09:19:38.051Z,100556.81
2022-08-04T09:22:19.873Z,100558.59
2022-08-04T09:25:18.612Z,100557.25
2022-08-04T09:27:56.060Z,100549.81
2022-08-04T09:30:28.115Z,100557.69
2022-08-04T09:33:22.632Z,100552.56
2022-08-04T09:36:13.643Z,100553.50
2022-08-04T09:39:06.795Z,100554.53
2022-08-04T09:41:56.892Z,100552.75
2022-08-04T09:45:05.682Z,100542.72
2022-08-04T09:47:51.992Z,100542.84
2022-08-04T09:50:33.763Z,100544.31
2022-08-04T09:53:06.463Z,100533.25
2022-08-04T09:55:54.100Z,100532.00
2022-08-04T09:58:43.396Z,100532.13
2022-08-04T10:01:11.756Z,100529.50
2022-08-04T10:03:41.216Z,100528.13
2022-08-04T10:06:16.854Z,100528.72
2022-08-04T10:09:06.402Z,100526.25
2022-08-04T10:11:58.184Z,100521.78
2022-08-04T10:14:47.824Z,100520.72
2022-08-04T10:17:39.032Z,100516.28
2022-08-04T10:20:45.381Z,100514.59
2022-08-04T10:23:56.113Z,100517.72
2022-08-04T10:26:41.675Z,100513.75
2022-08-04T10:29:14.645Z,100508.84
2022-08-04T10:31:46.726Z,100511.75
2022-08-04T10:34:17.579Z,100507.50
2022-08-04T10:37:05.211Z,100498.44
2022-08-04T10:40:24.545Z,100498.94
2022-08-04T10:43:00.319Z,100497.34
2022-08-04T10:45:34.070Z,100493.78
2022-08-04T10:48:06.749Z,100483.81
2022-08-04T10:50:38.460Z,100484.78
2022-08-04T10:53:10.049Z,100480.31
2022-08-04T10:56:07.879Z,100479.44
2022-08-04T10:58:47.572Z,100483.69
2022-08-04T11:02:01.088Z,100474.44
2022-08-04T11:04:27.193Z,100468.50
2022-08-04T11:06:54.568Z,100474.00
2022-08-04T11:09:21.203Z,100462.53
2022-08-04T11:12:00.324Z,100474.09
2022-08-04T11:14:42.269Z,100471.06
2022-08-04T11:17:11.530Z,100466.81
2022-08-04T11:19:53.486Z,100473.22
2022-08-04T11:22:26.147Z,100471.75
2022-08-04T11:25:14.342Z,100468.66
2022-08-04T11:27:47.137Z,100463.22
2022-08-04T11:30:13.997Z,100467.97
2022-08-04T11:32:59.204Z,100458.66
2022-08-04T11:36:14.099Z,100453.34
2022-08-04T11:38:52.706Z,100457.16
2022-08-04T11:41:22.593Z,100454.91
2022-08-04T11:44:00.910Z,100451.88
2022-08-04T11:46:38.127Z,100447.88
2022-08-04T11:49:26.991Z,100446.34
2022-08-04T11:51:53.851Z,100446.41
2022-08-04T11:54:20.467Z,100447.56
2022-08-04T11:56:47.032Z,100437.59
2022-08-04T11:59:13.626Z,100437.37
2022-08-04T12:01:58.702Z,100431.69
2022-08-04T12:04:35.045Z,100432.38
2022-08-04T12:07:41.125Z,100428.31
2022-08-04T12:10:40.952Z,100418.44
2022-08-04T12:13:23.528Z,100415.47
2022-08-04T12:15:57.200Z,100420.50
2022-08-04T12:18:27.595Z,100417.34
2022-08-04T12:21:04.647Z,100405.00
2022-08-04T12:23:33.721Z,100406.28
2022-08-04T12:26:05.569Z,100414.75
2022-08-04T12:28:59.719Z,100405.06
2022-08-04T12:31:45.680Z,100398.22
2022-08-04T12:34:17.699Z,100393.84
2022-08-04T12:37:22.051Z,100395.94
2022-08-04T12:40:27.688Z,100404.41
2022-08-04T12:42:56.093Z,100397.75
2022-08-04T12:45:26.262Z,100403.56
2022-08-04T12:47:53.365Z,100401.31
2022-08-04T12:50:20.152Z,100404.75
2022-08-04T12:53:02.560Z,100404.34
2022-08-04T12:55:32.240Z,100397.66
2022-08-04T12:58:01.771Z,100394.69
2022-08-04T13:00:33.160Z,100388.97
2022-08-04T13:03:09.567Z,100392.03
2022-08-04T13:05:37.307Z,100381.97
2022-08-04T13:08:04.895Z,100382.34
2022-08-04T13:10:31.636Z,100384.06
2022-08-04T13:12:59.229Z,100386.91
2022-08-04T13:15:26.854Z,100381.66
2022-08-04T13:18:04.382Z,100373.63
2022-08-04T13:20:33.978Z,100369.50
2022-08-04T13:23:09.104Z,100368.06
2022-08-04T13:26:44.450Z,100365.59
2022-08-04T13:28:34.549Z,100359.25
2022-08-04T13:31:02.587Z,100361.06
2022-08-04T13:33:30.186Z,100355.81
2022-08-04T13:35:56.967Z,100353.16
2022-08-04T13:38:23.853Z,100351.78
2022-08-04T13:40:50.481Z,100356.41
2022-08-04T13:44:16.130Z,100360.25
2022-08-04T13:46:32.453Z,100356.78
2022-08-04T13:51:57.584Z,100343.00
2022-08-04T13:54:26.960Z,100342.16
2022-08-04T13:57:00.011Z,100343.78
2022-08-04T13:59:27.520Z,100336.91
2022-08-04T14:02:00.236Z,100334.16
2022-08-04T14:04:27.974Z,100331.59
2022-08-04T14:07:18.076Z,100323.94
2022-08-04T14:10:03.328Z,100327.69
2022-08-04T14:12:46.072Z,100327.06
2022-08-04T14:16:02.733Z,100324.00
2022-08-04T14:18:32.363Z,100325.84
2022-08-04T14:21:01.886Z,100318.78
2022-08-04T14:23:31.859Z,100313.16
2022-08-04T14:26:00.187Z,100305.31
2022-08-04T14:29:09.586Z,100315.22
2022-08-04T14:31:21.723Z,100306.91
2022-08-04T14:34:01.482Z,100310.81
2022-08-04T14:37:13.363Z,100309.91
2022-08-04T14:39:41.493Z,100309.91
2022-08-04T14:42:08.699Z,100304.44
2022-08-04T14:44:58.424Z,100300.38
2022-08-04T14:47:41.885Z,100306.34
2022-08-04T14:50:19.668Z,100307.19
2022-08-04T14:52:46.300Z,100302.13
2022-08-04T14:55:20.991Z,100299.25
2022-08-04T14:58:36.816Z,100299.25
2022-08-04T15:00:36.473Z,100297.59
2022-08-04T15:03:11.168Z,100296.03
2022-08-04T15:06:02.689Z,100296.56
2022-08-04T15:08:31.247Z,100290.81
2022-08-04T15:10:59.452Z,100291.53
2022-08-04T15:13:26.778Z,100296.31
2022-08-04T15:16:07.072Z,100298.91
2022-08-04T15:18:36.796Z,100302.50
2022-08-04T15:21:03.869Z,100293.44
2022-08-04T15:23:38.754Z,100297.53
2022-08-04T15:26:08.420Z,100290.12
2022-08-04T15:28:35.817Z,100292.03
2022-08-04T15:31:03.736Z,100292.91
2022-08-04T15:33:34.095Z,100290.50
2022-08-04T15:36:14.809Z,100288.69
2022-08-04T15:38:53.569Z,100293.00
2022-08-04T15:41:30.472Z,100280.44
2022-08-04T15:44:16.937Z,100283.53
2022-08-04T15:46:47.696Z,100278.69
2022-08-04T15:49:21.196Z,100277.19
2022-08-04T15:51:47.866Z,100280.53
2022-08-04T15:54:27.271Z,100271.75
2022-08-04T15:57:02.618Z,100271.53
2022-08-04T16:00:09.919Z,100276.22
2022-08-04T16:02:45.319Z,100274.37
2022-08-04T16:05:18.402Z,100262.09
2022-08-04T16:08:10.855Z,100271.50
2022-08-04T16:10:38.896Z,100258.91
2022-08-04T16:13:07.293Z,100263.75
2022-08-04T16:15:38.323Z,100269.41
2022-08-04T16:18:05.117Z,100255.78
2022-08-04T16:20:31.720Z,100264.81
2022-08-04T16:22:59.190Z,100263.28
2022-08-04T16:25:48.386Z,100258.91
2022-08-04T16:28:41.044Z,100251.53
2022-08-04T16:31:09.486Z,100260.94
2022-08-04T16:33:43.700Z,100258.03
2022-08-04T16:36:16.708Z,100256.94
2022-08-04T16:39:00.664Z,100251.56
2022-08-04T16:41:40.687Z,100258.25
2022-08-04T16:44:52.274Z,100262.00
2022-08-04T16:47:21.899Z,100249.91
2022-08-04T16:49:56.120Z,100256.84
2022-08-04T16:52:22.714Z,100255.81
2022-08-04T16:54:49.324Z,100251.66
2022-08-04T16:57:15.916Z,100248.94
2022-08-04T16:59:50.939Z,100245.16
2022-08-04T17:02:17.603Z,100245.75
2022-08-04T17:04:44.263Z,100251.63
2022-08-04T17:07:10.851Z,100242.88
2022-08-04T17:09:37.458Z,100250.41
2022-08-04T17:12:04.266Z,100255.84
2022-08-04T17:14:31.256Z,100256.84
2022-08-04T17:16:59.391Z,100253.09
2022-08-04T17:19:26.893Z,100256.84
2022-08-04T17:22:04.730Z,100260.41
2022-08-04T17:24:35.974Z,100260.03
2022-08-04T17:27:04.250Z,100258.97
2022-08-04T17:29:49.242Z,100255.19
2022-08-04T17:32:17.044Z,100260.63
2022-08-04T17:34:47.325Z,100261.25
2022-08-04T17:37:53.207Z,100262.28
2022-08-04T17:40:09.954Z,100258.13
2022-08-04T17:42:39.259Z,100262.50
2022-08-04T17:48:00.641Z,100259.78
2022-08-04T17:50:34.647Z,100268.53
2022-08-04T17:53:11.868Z,100263.47
2022-08-04T17:55:47.502Z,100257.78
2022-08-04T17:58:22.342Z,100261.37
2022-08-04T18:01:10.655Z,100259.50
2022-08-04T18:03:44.863Z,100256.56
2022-08-04T18:06:20.596Z,100253.44
2022-08-04T18:08:57.996Z,100258.03
2022-08-04T18:11:29.785Z,100255.28
2022-08-04T18:14:08.965Z,100256.94
2022-08-04T18:16:45.975Z,100257.94
2022-08-04T18:19:14.478Z,100260.41
2022-08-04T18:21:46.548Z,100256.66
2022-08-04T18:24:34.123Z,100259.75
2022-08-04T18:27:15.209Z,100266.22
2022-08-04T18:30:15.152Z,100270.38
2022-08-04T18:32:33.020Z,100270.34
2022-08-04T18:38:05.862Z,100287.63
2022-08-04T18:40:52.562Z,100285.31
2022-08-04T18:43:27.910Z,100285.09
2022-08-04T18:46:14.058Z,100290.22
2022-08-04T18:48:41.516Z,100294.78
2022-08-04T18:51:08.984Z,100294.72
2022-08-04T18:53:54.931Z,100292.81
2022-08-04T18:56:31.682Z,100292.78
2022-08-04T18:59:03.890Z,100304.41
2022-08-04T19:02:13.386Z,100300.22
2022-08-04T19:04:33.837Z,100304.09
2022-08-04T19:07:29.981Z,100309.06
2022-08-04T19:09:57.367Z,100305.91
2022-08-04T19:12:27.157Z,100307.31
2022-08-04T19:14:58.327Z,100301.66
2022-08-04T19:20:16.075Z,100308.03
2022-08-04T19:24:31.415Z,100308.16
2022-08-04T19:26:02.783Z,100310.63
2022-08-04T19:28:34.984Z,100314.16
2022-08-04T19:31:08.988Z,100316.00
2022-08-04T19:33:58.246Z,100320.47
2022-08-04T19:36:28.490Z,100320.38
2022-08-04T19:38:56.791Z,100320.34
2022-08-04T19:41:23.536Z,100321.53
2022-08-04T19:43:53.068Z,100327.53
2022-08-04T19:46:20.067Z,100318.09
2022-08-04T19:48:58.940Z,100323.91
2022-08-04T19:51:30.382Z,100329.69
2022-08-04T19:54:03.809Z,100331.94
2022-08-04T19:59:24.375Z,100332.03
2022-08-04T20:01:51.017Z,100329.91
2022-08-04T20:04:21.510Z,100326.94
2022-08-04T20:06:50.094Z,100337.62
2022-08-04T20:09:26.581Z,100338.37
2022-08-04T20:12:03.580Z,100331.69
2022-08-04T20:14:32.090Z,100340.34
2022-08-04T20:17:01.742Z,100333.47
2022-08-04T20:19:28.330Z,100335.87
2022-08-04T20:21:57.285Z,100340.81
2022-08-04T20:24:40.331Z,100337.09
2022-08-04T20:27:14.563Z,100338.50
2022-08-04T20:29:43.239Z,100334.31
2022-08-04T20:32:10.318Z,100335.97
2022-08-04T20:34:37.990Z,100343.81
2022-08-04T20:37:06.941Z,100345.00
2022-08-04T20:39:37.034Z,100345.87
2022-08-04T20:42:03.737Z,100347.03
2022-08-04T20:44:30.503Z,100346.22
2022-08-04T20:46:57.134Z,100341.38
2022-08-04T20:52:16.464Z,100351.59
2022-08-04T20:54:49.319Z,100342.81
2022-08-04T20:57:49.304Z,100350.28
2022-08-04T21:00:10.303Z,100345.78
2022-08-04T21:02:40.238Z,100349.03
2022-08-04T21:05:09.446Z,100354.50
2022-08-04T21:07:36.446Z,100348.44
2022-08-04T21:10:10.583Z,100356.91
2022-08-04T21:12:37.587Z,100351.22
2022-08-04T21:15:13.325Z,100355.13
2022-08-04T21:17:58.844Z,100365.63
2022-08-04T21:20:29.534Z,100358.03
2022-08-04T21:23:01.506Z,100365.66
2022-08-04T21:25:28.525Z,100360.25
2022-08-04T21:27:58.566Z,100367.69
2022-08-04T21:30:26.688Z,100366.22
2022-08-04T21:32:55.257Z,100376.69
2022-08-04T21:35:36.831Z,100368.41
2022-08-04T21:38:04.048Z,100367.25
2022-08-04T21:40:49.960Z,100379.09
2022-08-04T21:43:20.713Z,100384.06
2022-08-04T21:45:50.563Z,100387.28
2022-08-04T21:48:17.156Z,100387.34
2022-08-04T21:50:43.979Z,100394.44
2022-08-04T21:53:17.003Z,100392.25
2022-08-04T21:56:06.603Z,100389.53
2022-08-04T21:58:33.479Z,100399.31
2022-08-04T22:01:00.195Z,100391.62
2022-08-04T22:03:51.757Z,100389.63
2022-08-04T22:06:17.430Z,100384.78
2022-08-04T22:08:44.428Z,100390.19
2022-08-04T22:11:48.150Z,100392.72
2022-08-04T22:14:15.922Z,100398.78
2022-08-04T22:16:45.038Z,100410.25
2022-08-04T22:19:11.666Z,100407.59
2022-08-04T22:21:45.314Z,100404.72
2022-08-04T22:24:13.819Z,100405.56
2022-08-04T22:26:41.083Z,100413.00
2022-08-04T22:29:07.691Z,100412.66
2022-08-04T22:31:56.380Z,100417.22
2022-08-04T22:34:24.812Z,100410.50
2022-08-04T22:36:53.582Z,100412.00
2022-08-04T22:39:20.333Z,100401.91
2022-08-04T22:42:03.820Z,100415.53
2022-08-04T22:44:32.316Z,100413.69
2022-08-04T22:46:59.795Z,100411.34
2022-08-04T22:49:31.389Z,100410.84
2022-08-04T22:51:58.853Z,100406.28
2022-08-04T22:54:25.923Z,100401.56
2022-08-04T22:56:55.045Z,100405.47
2022-08-04T22:59:23.266Z,100403.13
2022-08-04T23:01:59.155Z,100401.25
2022-08-04T23:04:27.867Z,100402.44
2022-08-04T23:06:54.490Z,100395.53
2022-08-04T23:09:21.998Z,100406.50
2022-08-04T23:12:08.666Z,100399.25
2022-08-04T23:14:44.717Z,100401.78
2022-08-04T23:17:13.586Z,100407.31
2022-08-04T23:19:41.204Z,100394.50
2022-08-04T23:22:07.911Z,100395.38
2022-08-04T23:24:34.624Z,100399.56
2022-08-04T23:27:01.207Z,100399.56
2022-08-04T23:29:27.872Z,100388.59
2022-08-04T23:32:14.505Z,100388.75
2022-08-04T23:34:46.909Z,100397.19
2022-08-04T23:37:13.485Z,100396.34
2022-08-04T23:40:14.350Z,100392.13
2022-08-04T23:42:29.024Z,100396.84
2022-08-04T23:44:55.765Z,100398.19
2022-08-04T23:48:19.109Z,100397.00
2022-08-04T23:50:09.319Z,100397.69
2022-08-04T23:52:35.947Z,100398.19
2022-08-04T23:55:02.536Z,100390.94
2022-08-04T23:57:31.508Z,100397.19
